sensor_id;sensor_type;location;lat;lon;timestamp;P1;durP1;ratioP1;P2;durP2;ratioP2
30080;SDS011;16902;50.816;12.828;2023-04-03T00:00:54;4.32;;;3.60;;
30080;SDS011;16902;50.816;12.828;2023-04-03T00:05:56;8.30;;;3.45;;
30080;SDS011;16902;50.816;12.828;2023-04-03T00:10:58;4.70;;;3.50;;
30080;SDS011;16902;50.816;12.828;2023-04-03T00:16:00;5.43;;;3.40;;
30080;SDS011;16902;50.816;12.828;2023-04-03T00:21:02;4.68;;;3.45;;
30080;SDS011;16902;50.816;12.828;2023-04-03T00:26:04;3.78;;;3.42;;
30080;SDS011;16902;50.816;12.828;2023-04-03T00:31:06;4.32;;;3.00;;
30080;SDS011;16902;50.816;12.828;2023-04-03T00:36:08;3.40;;;3.15;;
30080;SDS011;16902;50.816;12.828;2023-04-03T00:41:11;6.55;;;3.20;;
30080;SDS011;16902;50.816;12.828;2023-04-03T00:46:13;3.67;;;3.30;;
30080;SDS011;16902;50.816;12.828;2023-04-03T00:51:23;4.18;;;2.92;;
30080;SDS011;16902;50.816;12.828;2023-04-03T00:56:26;3.85;;;3.45;;
30080;SDS011;16902;50.816;12.828;2023-04-03T01:01:31;5.35;;;3.17;;
30080;SDS011;16902;50.816;12.828;2023-04-03T01:06:34;4.95;;;3.10;;
30080;SDS011;16902;50.816;12.828;2023-04-03T01:11:41;3.72;;;3.25;;
30080;SDS011;16902;50.816;12.828;2023-04-03T01:16:42;4.40;;;3.65;;
30080;SDS011;16902;50.816;12.828;2023-04-03T01:21:52;7.20;;;3.40;;
30080;SDS011;16902;50.816;12.828;2023-04-03T01:27:05;3.28;;;3.08;;
30080;SDS011;16902;50.816;12.828;2023-04-03T01:32:09;3.25;;;2.92;;
30080;SDS011;16902;50.816;12.828;2023-04-03T01:37:11;4.82;;;3.42;;
30080;SDS011;16902;50.816;12.828;2023-04-03T01:42:13;5.18;;;3.10;;
30080;SDS011;16902;50.816;12.828;2023-04-03T01:47:18;3.63;;;3.33;;
30080;SDS011;16902;50.816;12.828;2023-04-03T01:52:20;3.30;;;3.00;;
30080;SDS011;16902;50.816;12.828;2023-04-03T01:57:21;4.15;;;3.72;;
30080;SDS011;16902;50.816;12.828;2023-04-03T02:02:23;5.50;;;3.25;;
30080;SDS011;16902;50.816;12.828;2023-04-03T02:07:26;3.80;;;3.20;;
30080;SDS011;16902;50.816;12.828;2023-04-03T02:12:28;3.87;;;3.43;;
30080;SDS011;16902;50.816;12.828;2023-04-03T02:17:30;3.35;;;3.05;;
30080;SDS011;16902;50.816;12.828;2023-04-03T02:22:31;4.28;;;3.70;;
30080;SDS011;16902;50.816;12.828;2023-04-03T02:27:33;5.25;;;3.30;;
30080;SDS011;16902;50.816;12.828;2023-04-03T02:32:35;3.57;;;3.30;;
30080;SDS011;16902;50.816;12.828;2023-04-03T02:37:37;3.40;;;3.10;;
30080;SDS011;16902;50.816;12.828;2023-04-03T02:42:39;3.87;;;3.30;;
30080;SDS011;16902;50.816;12.828;2023-04-03T02:47:41;4.10;;;3.17;;
30080;SDS011;16902;50.816;12.828;2023-04-03T02:52:43;5.07;;;2.97;;
30080;SDS011;16902;50.816;12.828;2023-04-03T02:57:45;3.27;;;3.00;;
30080;SDS011;16902;50.816;12.828;2023-04-03T03:02:48;3.57;;;3.20;;
30080;SDS011;16902;50.816;12.828;2023-04-03T03:07:50;4.63;;;3.40;;
30080;SDS011;16902;50.816;12.828;2023-04-03T03:12:52;6.93;;;3.20;;
30080;SDS011;16902;50.816;12.828;2023-04-03T03:17:54;4.40;;;2.87;;
30080;SDS011;16902;50.816;12.828;2023-04-03T03:22:55;5.63;;;3.40;;
30080;SDS011;16902;50.816;12.828;2023-04-03T03:27:57;3.93;;;3.27;;
30080;SDS011;16902;50.816;12.828;2023-04-03T03:32:59;4.17;;;3.20;;
30080;SDS011;16902;50.816;12.828;2023-04-03T03:38:01;3.83;;;2.90;;
30080;SDS011;16902;50.816;12.828;2023-04-03T03:43:02;3.13;;;2.93;;
30080;SDS011;16902;50.816;12.828;2023-04-03T03:48:05;4.27;;;3.10;;
30080;SDS011;16902;50.816;12.828;2023-04-03T03:53:07;4.93;;;3.30;;
30080;SDS011;16902;50.816;12.828;2023-04-03T03:58:09;5.53;;;3.63;;
30080;SDS011;16902;50.816;12.828;2023-04-03T04:03:11;6.60;;;3.83;;
30080;SDS011;16902;50.816;12.828;2023-04-03T04:08:14;6.80;;;3.33;;
30080;SDS011;16902;50.816;12.828;2023-04-03T04:13:18;6.03;;;3.03;;
30080;SDS011;16902;50.816;12.828;2023-04-03T04:18:20;5.73;;;3.10;;
30080;SDS011;16902;50.816;12.828;2023-04-03T04:23:24;5.03;;;4.00;;
30080;SDS011;16902;50.816;12.828;2023-04-03T04:28:27;4.17;;;3.30;;
30080;SDS011;16902;50.816;12.828;2023-04-03T04:33:31;5.17;;;3.30;;
30080;SDS011;16902;50.816;12.828;2023-04-03T04:38:35;4.10;;;3.10;;
30080;SDS011;16902;50.816;12.828;2023-04-03T04:43:37;3.83;;;3.20;;
30080;SDS011;16902;50.816;12.828;2023-04-03T04:48:39;3.43;;;3.13;;
30080;SDS011;16902;50.816;12.828;2023-04-03T04:53:42;6.23;;;3.53;;
30080;SDS011;16902;50.816;12.828;2023-04-03T04:58:47;4.73;;;3.40;;
30080;SDS011;16902;50.816;12.828;2023-04-03T05:03:51;5.23;;;3.53;;
30080;SDS011;16902;50.816;12.828;2023-04-03T05:08:53;5.53;;;3.27;;
30080;SDS011;16902;50.816;12.828;2023-04-03T05:13:56;6.57;;;3.50;;
30080;SDS011;16902;50.816;12.828;2023-04-03T05:18:59;3.10;;;2.80;;
30080;SDS011;16902;50.816;12.828;2023-04-03T05:24:02;7.53;;;2.90;;
30080;SDS011;16902;50.816;12.828;2023-04-03T05:29:07;4.13;;;3.20;;
30080;SDS011;16902;50.816;12.828;2023-04-03T05:34:09;3.67;;;3.37;;
30080;SDS011;16902;50.816;12.828;2023-04-03T05:39:14;4.50;;;3.20;;
30080;SDS011;16902;50.816;12.828;2023-04-03T05:44:17;6.57;;;4.00;;
30080;SDS011;16902;50.816;12.828;2023-04-03T05:49:21;4.80;;;3.47;;
30080;SDS011;16902;50.816;12.828;2023-04-03T05:54:24;8.70;;;4.03;;
30080;SDS011;16902;50.816;12.828;2023-04-03T05:59:33;8.50;;;4.10;;
30080;SDS011;16902;50.816;12.828;2023-04-03T06:04:35;7.07;;;3.90;;
30080;SDS011;16902;50.816;12.828;2023-04-03T06:09:37;3.67;;;3.40;;
30080;SDS011;16902;50.816;12.828;2023-04-03T06:14:39;6.70;;;3.83;;
30080;SDS011;16902;50.816;12.828;2023-04-03T06:19:40;6.20;;;4.07;;
30080;SDS011;16902;50.816;12.828;2023-04-03T06:24:42;4.30;;;4.00;;
30080;SDS011;16902;50.816;12.828;2023-04-03T06:29:45;4.87;;;4.37;;
30080;SDS011;16902;50.816;12.828;2023-04-03T06:34:46;8.23;;;4.93;;
30080;SDS011;16902;50.816;12.828;2023-04-03T06:39:48;8.50;;;5.40;;
30080;SDS011;16902;50.816;12.828;2023-04-03T06:44:50;9.87;;;4.50;;
30080;SDS011;16902;50.816;12.828;2023-04-03T06:49:52;4.80;;;4.37;;
30080;SDS011;16902;50.816;12.828;2023-04-03T06:54:53;5.23;;;4.73;;
30080;SDS011;16902;50.816;12.828;2023-04-03T06:59:58;5.00;;;4.60;;
30080;SDS011;16902;50.816;12.828;2023-04-03T07:05:01;7.03;;;5.13;;
30080;SDS011;16902;50.816;12.828;2023-04-03T07:10:04;6.07;;;5.50;;
30080;SDS011;16902;50.816;12.828;2023-04-03T07:15:07;12.93;;;5.73;;
30080;SDS011;16902;50.816;12.828;2023-04-03T07:20:09;5.93;;;5.37;;
30080;SDS011;16902;50.816;12.828;2023-04-03T07:25:14;8.03;;;6.00;;
30080;SDS011;16902;50.816;12.828;2023-04-03T07:30:16;6.00;;;5.43;;
30080;SDS011;16902;50.816;12.828;2023-04-03T07:35:17;6.50;;;5.90;;
30080;SDS011;16902;50.816;12.828;2023-04-03T07:40:20;8.00;;;6.18;;
30080;SDS011;16902;50.816;12.828;2023-04-03T07:45:22;6.25;;;5.72;;
30080;SDS011;16902;50.816;12.828;2023-04-03T07:50:25;7.95;;;6.40;;
30080;SDS011;16902;50.816;12.828;2023-04-03T07:55:27;7.25;;;6.60;;
30080;SDS011;16902;50.816;12.828;2023-04-03T08:00:29;8.15;;;7.38;;
30080;SDS011;16902;50.816;12.828;2023-04-03T08:05:31;7.33;;;6.63;;
30080;SDS011;16902;50.816;12.828;2023-04-03T08:10:33;8.27;;;7.28;;
30080;SDS011;16902;50.816;12.828;2023-04-03T08:15:36;7.53;;;6.82;;
30080;SDS011;16902;50.816;12.828;2023-04-03T08:20:38;7.67;;;7.07;;
30080;SDS011;16902;50.816;12.828;2023-04-03T08:25:41;7.75;;;7.05;;
30080;SDS011;16902;50.816;12.828;2023-04-03T08:30:44;8.88;;;8.18;;
30080;SDS011;16902;50.816;12.828;2023-04-03T08:35:47;8.05;;;7.38;;
30080;SDS011;16902;50.816;12.828;2023-04-03T08:40:59;9.55;;;8.70;;
30080;SDS011;16902;50.816;12.828;2023-04-03T08:46:04;8.50;;;7.85;;
30080;SDS011;16902;50.816;12.828;2023-04-03T08:51:12;10.73;;;9.93;;
30080;SDS011;16902;50.816;12.828;2023-04-03T08:56:18;11.23;;;10.38;;
30080;SDS011;16902;50.816;12.828;2023-04-03T09:01:25;10.65;;;9.82;;
30080;SDS011;16902;50.816;12.828;2023-04-03T09:06:31;11.25;;;10.43;;
30080;SDS011;16902;50.816;12.828;2023-04-03T09:16:58;11.25;;;10.45;;
30080;SDS011;16902;50.816;12.828;2023-04-03T09:22:08;10.38;;;9.60;;
30080;SDS011;16902;50.816;12.828;2023-04-03T09:27:17;10.80;;;9.73;;
30080;SDS011;16902;50.816;12.828;2023-04-03T09:32:30;10.43;;;9.82;;
30080;SDS011;16902;50.816;12.828;2023-04-03T09:37:40;10.57;;;9.77;;
30080;SDS011;16902;50.816;12.828;2023-04-03T09:42:43;10.57;;;9.97;;
30080;SDS011;16902;50.816;12.828;2023-04-03T09:48:12;11.25;;;10.40;;
30080;SDS011;16902;50.816;12.828;2023-04-03T09:53:37;13.20;;;12.18;;
30080;SDS011;16902;50.816;12.828;2023-04-03T09:58:42;12.43;;;11.73;;
30080;SDS011;16902;50.816;12.828;2023-04-03T10:04:36;13.27;;;12.57;;
30080;SDS011;16902;50.816;12.828;2023-04-03T10:09:25;12.88;;;12.07;;
30080;SDS011;16902;50.816;12.828;2023-04-03T10:14:28;11.93;;;11.38;;
30080;SDS011;16902;50.816;12.828;2023-04-03T10:30:19;13.10;;;12.38;;
30080;SDS011;16902;50.816;12.828;2023-04-03T10:46:43;15.07;;;14.27;;
30080;SDS011;16902;50.816;12.828;2023-04-03T10:57:22;14.32;;;13.50;;
30080;SDS011;16902;50.816;12.828;2023-04-03T11:02:33;15.63;;;14.65;;
30080;SDS011;16902;50.816;12.828;2023-04-03T11:07:38;16.63;;;15.63;;
30080;SDS011;16902;50.816;12.828;2023-04-03T11:12:44;15.93;;;15.13;;
30080;SDS011;16902;50.816;12.828;2023-04-03T11:17:58;15.48;;;14.80;;
30080;SDS011;16902;50.816;12.828;2023-04-03T11:23:24;15.38;;;14.68;;
30080;SDS011;16902;50.816;12.828;2023-04-03T11:28:42;15.68;;;14.70;;
30080;SDS011;16902;50.816;12.828;2023-04-03T11:39:00;17.05;;;16.05;;
30080;SDS011;16902;50.816;12.828;2023-04-03T11:50:02;16.58;;;15.77;;
30080;SDS011;16902;50.816;12.828;2023-04-03T12:05:58;16.33;;;15.43;;
30080;SDS011;16902;50.816;12.828;2023-04-03T12:16:24;17.20;;;16.30;;
30080;SDS011;16902;50.816;12.828;2023-04-03T12:47:34;17.20;;;16.40;;
30080;SDS011;16902;50.816;12.828;2023-04-03T12:52:40;17.20;;;16.40;;
30080;SDS011;16902;50.816;12.828;2023-04-03T12:57:45;16.80;;;16.10;;
30080;SDS011;16902;50.816;12.828;2023-04-03T13:02:47;17.27;;;16.48;;
30080;SDS011;16902;50.816;12.828;2023-04-03T13:08:12;17.15;;;16.35;;
30080;SDS011;16902;50.816;12.828;2023-04-03T13:13:16;17.40;;;16.50;;
30080;SDS011;16902;50.816;12.828;2023-04-03T13:18:32;18.17;;;17.25;;
30080;SDS011;16902;50.816;12.828;2023-04-03T13:23:38;17.20;;;16.40;;
30080;SDS011;16902;50.816;12.828;2023-04-03T13:28:41;17.13;;;16.33;;
30080;SDS011;16902;50.816;12.828;2023-04-03T13:39:26;17.05;;;16.08;;
30080;SDS011;16902;50.816;12.828;2023-04-03T13:44:30;17.45;;;16.52;;
30080;SDS011;16902;50.816;12.828;2023-04-03T13:49:38;17.08;;;16.17;;
30080;SDS011;16902;50.816;12.828;2023-04-03T13:54:41;17.13;;;16.33;;
30080;SDS011;16902;50.816;12.828;2023-04-03T13:59:43;17.20;;;16.35;;
30080;SDS011;16902;50.816;12.828;2023-04-03T14:09:57;17.10;;;16.10;;
30080;SDS011;16902;50.816;12.828;2023-04-03T14:15:00;17.33;;;16.40;;
30080;SDS011;16902;50.816;12.828;2023-04-03T14:20:03;17.23;;;16.27;;
30080;SDS011;16902;50.816;12.828;2023-04-03T14:25:05;16.70;;;15.88;;
30080;SDS011;16902;50.816;12.828;2023-04-03T14:30:18;17.15;;;16.35;;
30080;SDS011;16902;50.816;12.828;2023-04-03T14:35:34;16.98;;;16.00;;
30080;SDS011;16902;50.816;12.828;2023-04-03T14:40:35;16.38;;;15.57;;
30080;SDS011;16902;50.816;12.828;2023-04-03T14:45:38;16.77;;;15.98;;
30080;SDS011;16902;50.816;12.828;2023-04-03T14:50:40;16.52;;;15.40;;
30080;SDS011;16902;50.816;12.828;2023-04-03T14:55:55;16.08;;;15.30;;
30080;SDS011;16902;50.816;12.828;2023-04-03T15:00:56;16.10;;;15.30;;
30080;SDS011;16902;50.816;12.828;2023-04-03T15:05:58;15.88;;;15.15;;
30080;SDS011;16902;50.816;12.828;2023-04-03T15:11:00;16.95;;;16.15;;
30080;SDS011;16902;50.816;12.828;2023-04-03T15:16:02;16.50;;;15.70;;
30080;SDS011;16902;50.816;12.828;2023-04-03T15:21:05;16.35;;;15.52;;
30080;SDS011;16902;50.816;12.828;2023-04-03T15:26:07;16.25;;;15.45;;
30080;SDS011;16902;50.816;12.828;2023-04-03T15:31:09;16.23;;;15.52;;
30080;SDS011;16902;50.816;12.828;2023-04-03T15:36:10;16.85;;;15.85;;
30080;SDS011;16902;50.816;12.828;2023-04-03T15:41:17;16.58;;;15.57;;
30080;SDS011;16902;50.816;12.828;2023-04-03T15:46:18;15.60;;;14.90;;
30080;SDS011;16902;50.816;12.828;2023-04-03T15:51:20;16.10;;;15.20;;
30080;SDS011;16902;50.816;12.828;2023-04-03T15:56:22;16.85;;;15.95;;
30080;SDS011;16902;50.816;12.828;2023-04-03T16:01:24;16.02;;;15.07;;
30080;SDS011;16902;50.816;12.828;2023-04-03T16:06:26;16.20;;;15.40;;
30080;SDS011;16902;50.816;12.828;2023-04-03T16:11:30;16.38;;;15.48;;
30080;SDS011;16902;50.816;12.828;2023-04-03T16:16:32;15.20;;;14.40;;
30080;SDS011;16902;50.816;12.828;2023-04-03T16:21:34;15.95;;;15.10;;
30080;SDS011;16902;50.816;12.828;2023-04-03T16:26:36;15.63;;;14.82;;
30080;SDS011;16902;50.816;12.828;2023-04-03T16:31:37;15.48;;;14.57;;
30080;SDS011;16902;50.816;12.828;2023-04-03T16:36:39;15.45;;;14.65;;
30080;SDS011;16902;50.816;12.828;2023-04-03T16:41:41;15.57;;;14.82;;
30080;SDS011;16902;50.816;12.828;2023-04-03T16:46:43;16.33;;;15.52;;
30080;SDS011;16902;50.816;12.828;2023-04-03T16:51:48;16.17;;;15.48;;
30080;SDS011;16902;50.816;12.828;2023-04-03T16:56:50;16.20;;;15.30;;
30080;SDS011;16902;50.816;12.828;2023-04-03T17:01:52;17.60;;;16.50;;
30080;SDS011;16902;50.816;12.828;2023-04-03T17:06:54;16.67;;;15.77;;
30080;SDS011;16902;50.816;12.828;2023-04-03T17:11:56;16.50;;;15.55;;
30080;SDS011;16902;50.816;12.828;2023-04-03T17:16:58;15.80;;;15.10;;
30080;SDS011;16902;50.816;12.828;2023-04-03T17:22:00;14.98;;;14.30;;
30080;SDS011;16902;50.816;12.828;2023-04-03T17:27:02;13.90;;;13.30;;
30080;SDS011;16902;50.816;12.828;2023-04-03T17:32:04;14.68;;;13.75;;
30080;SDS011;16902;50.816;12.828;2023-04-03T17:37:06;14.90;;;14.10;;
30080;SDS011;16902;50.816;12.828;2023-04-03T17:42:08;15.32;;;14.63;;
30080;SDS011;16902;50.816;12.828;2023-04-03T17:47:09;14.00;;;13.50;;
30080;SDS011;16902;50.816;12.828;2023-04-03T17:52:11;14.43;;;13.73;;
30080;SDS011;16902;50.816;12.828;2023-04-03T17:57:13;13.77;;;13.13;;
30080;SDS011;16902;50.816;12.828;2023-04-03T18:02:14;14.82;;;13.85;;
30080;SDS011;16902;50.816;12.828;2023-04-03T18:07:16;14.35;;;13.68;;
30080;SDS011;16902;50.816;12.828;2023-04-03T18:12:18;14.73;;;13.93;;
30080;SDS011;16902;50.816;12.828;2023-04-03T18:17:20;14.52;;;13.68;;
30080;SDS011;16902;50.816;12.828;2023-04-03T18:22:22;14.52;;;13.82;;
30080;SDS011;16902;50.816;12.828;2023-04-03T18:27:25;14.23;;;13.53;;
30080;SDS011;16902;50.816;12.828;2023-04-03T18:32:28;14.68;;;14.00;;
30080;SDS011;16902;50.816;12.828;2023-04-03T18:37:30;14.38;;;13.77;;
30080;SDS011;16902;50.816;12.828;2023-04-03T18:42:32;14.52;;;13.73;;
30080;SDS011;16902;50.816;12.828;2023-04-03T18:47:33;14.70;;;13.90;;
30080;SDS011;16902;50.816;12.828;2023-04-03T18:52:37;14.50;;;13.60;;
30080;SDS011;16902;50.816;12.828;2023-04-03T18:57:38;14.18;;;13.48;;
30080;SDS011;16902;50.816;12.828;2023-04-03T19:02:40;13.80;;;13.10;;
30080;SDS011;16902;50.816;12.828;2023-04-03T19:07:42;14.50;;;13.70;;
30080;SDS011;16902;50.816;12.828;2023-04-03T19:12:45;14.60;;;13.80;;
30080;SDS011;16902;50.816;12.828;2023-04-03T19:17:48;15.10;;;14.30;;
30080;SDS011;16902;50.816;12.828;2023-04-03T19:22:51;14.00;;;13.40;;
30080;SDS011;16902;50.816;12.828;2023-04-03T19:27:54;14.15;;;13.55;;
30080;SDS011;16902;50.816;12.828;2023-04-03T19:32:55;13.88;;;12.93;;
30080;SDS011;16902;50.816;12.828;2023-04-03T19:37:57;13.82;;;13.10;;
30080;SDS011;16902;50.816;12.828;2023-04-03T19:42:59;13.35;;;12.48;;
30080;SDS011;16902;50.816;12.828;2023-04-03T19:48:01;12.60;;;12.00;;
30080;SDS011;16902;50.816;12.828;2023-04-03T19:53:03;12.73;;;12.03;;
30080;SDS011;16902;50.816;12.828;2023-04-03T19:58:07;12.80;;;12.27;;
30080;SDS011;16902;50.816;12.828;2023-04-03T20:03:08;13.17;;;12.47;;
30080;SDS011;16902;50.816;12.828;2023-04-03T20:08:12;12.63;;;11.98;;
30080;SDS011;16902;50.816;12.828;2023-04-03T20:13:14;13.52;;;12.48;;
30080;SDS011;16902;50.816;12.828;2023-04-03T20:18:17;12.40;;;11.60;;
30080;SDS011;16902;50.816;12.828;2023-04-03T20:23:20;12.10;;;11.50;;
30080;SDS011;16902;50.816;12.828;2023-04-03T20:28:22;12.55;;;11.95;;
30080;SDS011;16902;50.816;12.828;2023-04-03T20:33:24;13.30;;;12.40;;
30080;SDS011;16902;50.816;12.828;2023-04-03T20:38:29;12.10;;;11.40;;
30080;SDS011;16902;50.816;12.828;2023-04-03T20:43:30;12.70;;;11.70;;
30080;SDS011;16902;50.816;12.828;2023-04-03T20:48:33;12.68;;;11.98;;
30080;SDS011;16902;50.816;12.828;2023-04-03T20:53:34;12.73;;;11.93;;
30080;SDS011;16902;50.816;12.828;2023-04-03T20:58:36;12.52;;;11.82;;
30080;SDS011;16902;50.816;12.828;2023-04-03T21:03:41;12.65;;;11.75;;
30080;SDS011;16902;50.816;12.828;2023-04-03T21:20:02;11.70;;;11.10;;
30080;SDS011;16902;50.816;12.828;2023-04-03T21:25:04;11.63;;;11.02;;
30080;SDS011;16902;50.816;12.828;2023-04-03T21:30:06;10.75;;;10.13;;
30080;SDS011;16902;50.816;12.828;2023-04-03T21:35:08;10.90;;;10.30;;
30080;SDS011;16902;50.816;12.828;2023-04-03T21:40:10;11.25;;;10.55;;
30080;SDS011;16902;50.816;12.828;2023-04-03T21:45:11;10.30;;;9.70;;
30080;SDS011;16902;50.816;12.828;2023-04-03T21:50:16;11.55;;;10.60;;
30080;SDS011;16902;50.816;12.828;2023-04-03T21:55:19;11.35;;;10.65;;
30080;SDS011;16902;50.816;12.828;2023-04-03T22:00:21;12.10;;;11.30;;
30080;SDS011;16902;50.816;12.828;2023-04-03T22:05:23;11.57;;;10.88;;
30080;SDS011;16902;50.816;12.828;2023-04-03T22:10:25;11.50;;;10.77;;
30080;SDS011;16902;50.816;12.828;2023-04-03T22:15:26;11.75;;;11.05;;
30080;SDS011;16902;50.816;12.828;2023-04-03T22:20:28;11.23;;;10.43;;
30080;SDS011;16902;50.816;12.828;2023-04-03T22:25:30;10.80;;;10.20;;
30080;SDS011;16902;50.816;12.828;2023-04-03T22:30:32;11.48;;;10.63;;
30080;SDS011;16902;50.816;12.828;2023-04-03T22:35:34;11.52;;;10.70;;
30080;SDS011;16902;50.816;12.828;2023-04-03T22:40:35;11.05;;;10.10;;
30080;SDS011;16902;50.816;12.828;2023-04-03T22:45:47;10.45;;;9.65;;
30080;SDS011;16902;50.816;12.828;2023-04-03T22:50:50;9.43;;;8.65;;
30080;SDS011;16902;50.816;12.828;2023-04-03T22:56:01;8.43;;;7.82;;
30080;SDS011;16902;50.816;12.828;2023-04-03T23:01:09;8.63;;;7.85;;
30080;SDS011;16902;50.816;12.828;2023-04-03T23:06:12;8.23;;;7.63;;
30080;SDS011;16902;50.816;12.828;2023-04-03T23:11:13;8.73;;;8.13;;
30080;SDS011;16902;50.816;12.828;2023-04-03T23:16:15;7.43;;;6.93;;
30080;SDS011;16902;50.816;12.828;2023-04-03T23:21:17;7.32;;;6.93;;
30080;SDS011;16902;50.816;12.828;2023-04-03T23:26:19;8.35;;;7.75;;
30080;SDS011;16902;50.816;12.828;2023-04-03T23:31:20;8.70;;;8.20;;
30080;SDS011;16902;50.816;12.828;2023-04-03T23:36:23;7.78;;;7.15;;
30080;SDS011;16902;50.816;12.828;2023-04-03T23:41:24;8.35;;;7.65;;
30080;SDS011;16902;50.816;12.828;2023-04-03T23:46:26;8.25;;;7.65;;
30080;SDS011;16902;50.816;12.828;2023-04-03T23:51:28;8.48;;;7.68;;
30080;SDS011;16902;50.816;12.828;2023-04-03T23:56:29;7.47;;;6.97;;
